sensor_id;sensor_type;location;lat;lon;timestamp;P1;durP1;ratioP1;P2;durP2;ratioP2
20159;SDS011;50187;50.492;12.134;2023-09-19T00:01:33;1.03;;;0.97;;
20159;SDS011;50187;50.492;12.134;2023-09-19T00:04:01;1.10;;;1.10;;
20159;SDS011;50187;50.492;12.134;2023-09-19T00:06:29;1.23;;;1.10;;
20159;SDS011;50187;50.492;12.134;2023-09-19T00:08:57;0.87;;;0.87;;
20159;SDS011;50187;50.492;12.134;2023-09-19T00:11:27;0.70;;;0.70;;
20159;SDS011;50187;50.492;12.134;2023-09-19T00:13:53;0.83;;;0.83;;
20159;SDS011;50187;50.492;12.134;2023-09-19T00:16:20;0.93;;;0.93;;
20159;SDS011;50187;50.492;12.134;2023-09-19T00:18:47;0.70;;;0.70;;
20159;SDS011;50187;50.492;12.134;2023-09-19T00:21:15;0.97;;;0.93;;
20159;SDS011;50187;50.492;12.134;2023-09-19T00:23:41;0.80;;;0.80;;
20159;SDS011;50187;50.492;12.134;2023-09-19T00:26:08;0.97;;;0.97;;
20159;SDS011;50187;50.492;12.134;2023-09-19T00:28:35;0.80;;;0.80;;
20159;SDS011;50187;50.492;12.134;2023-09-19T00:31:02;0.90;;;0.90;;
20159;SDS011;50187;50.492;12.134;2023-09-19T00:33:30;0.80;;;0.80;;
20159;SDS011;50187;50.492;12.134;2023-09-19T00:35:57;1.03;;;1.03;;
20159;SDS011;50187;50.492;12.134;2023-09-19T00:38:24;0.80;;;0.80;;
20159;SDS011;50187;50.492;12.134;2023-09-19T00:40:54;1.10;;;1.10;;
20159;SDS011;50187;50.492;12.134;2023-09-19T00:43:24;0.90;;;0.90;;
20159;SDS011;50187;50.492;12.134;2023-09-19T00:45:52;0.90;;;0.90;;
20159;SDS011;50187;50.492;12.134;2023-09-19T00:48:21;2.20;;;0.70;;
20159;SDS011;50187;50.492;12.134;2023-09-19T00:50:49;0.83;;;0.83;;
20159;SDS011;50187;50.492;12.134;2023-09-19T00:53:18;0.93;;;0.93;;
20159;SDS011;50187;50.492;12.134;2023-09-19T00:55:47;1.30;;;1.20;;
20159;SDS011;50187;50.492;12.134;2023-09-19T00:58:16;0.63;;;0.63;;
20159;SDS011;50187;50.492;12.134;2023-09-19T01:00:44;0.80;;;0.80;;
20159;SDS011;50187;50.492;12.134;2023-09-19T01:03:11;0.67;;;0.67;;
20159;SDS011;50187;50.492;12.134;2023-09-19T01:05:40;1.03;;;1.03;;
20159;SDS011;50187;50.492;12.134;2023-09-19T01:08:07;0.70;;;0.70;;
20159;SDS011;50187;50.492;12.134;2023-09-19T01:10:33;0.80;;;0.80;;
20159;SDS011;50187;50.492;12.134;2023-09-19T01:26:18;0.90;;;0.90;;
20159;SDS011;50187;50.492;12.134;2023-09-19T01:32:17;0.97;;;0.93;;
20159;SDS011;50187;50.492;12.134;2023-09-19T01:34:49;0.70;;;0.70;;
20159;SDS011;50187;50.492;12.134;2023-09-19T01:37:21;0.70;;;0.70;;
20159;SDS011;50187;50.492;12.134;2023-09-19T01:39:52;0.70;;;0.70;;
20159;SDS011;50187;50.492;12.134;2023-09-19T01:42:27;0.83;;;0.83;;
20159;SDS011;50187;50.492;12.134;2023-09-19T01:48:05;0.67;;;0.67;;
20159;SDS011;50187;50.492;12.134;2023-09-19T01:55:57;0.80;;;0.80;;
20159;SDS011;50187;50.492;12.134;2023-09-19T02:00:56;1.00;;;0.90;;
20159;SDS011;50187;50.492;12.134;2023-09-19T02:03:26;0.70;;;0.70;;
20159;SDS011;50187;50.492;12.134;2023-09-19T02:05:55;0.70;;;0.70;;
20159;SDS011;50187;50.492;12.134;2023-09-19T02:08:22;0.87;;;0.87;;
20159;SDS011;50187;50.492;12.134;2023-09-19T02:10:52;1.00;;;1.00;;
20159;SDS011;50187;50.492;12.134;2023-09-19T02:13:19;0.90;;;0.90;;
20159;SDS011;50187;50.492;12.134;2023-09-19T02:15:47;0.80;;;0.63;;
20159;SDS011;50187;50.492;12.134;2023-09-19T02:18:14;1.13;;;0.70;;
20159;SDS011;50187;50.492;12.134;2023-09-19T02:20:41;1.40;;;1.10;;
20159;SDS011;50187;50.492;12.134;2023-09-19T02:23:08;0.77;;;0.77;;
20159;SDS011;50187;50.492;12.134;2023-09-19T02:25:36;0.80;;;0.80;;
20159;SDS011;50187;50.492;12.134;2023-09-19T02:28:04;0.60;;;0.60;;
20159;SDS011;50187;50.492;12.134;2023-09-19T02:30:32;0.97;;;0.97;;
20159;SDS011;50187;50.492;12.134;2023-09-19T02:32:59;0.93;;;0.93;;
20159;SDS011;50187;50.492;12.134;2023-09-19T02:35:29;0.73;;;0.73;;
20159;SDS011;50187;50.492;12.134;2023-09-19T02:38:02;0.57;;;0.57;;
20159;SDS011;50187;50.492;12.134;2023-09-19T02:40:32;0.90;;;0.90;;
20159;SDS011;50187;50.492;12.134;2023-09-19T02:43:02;0.80;;;0.80;;
20159;SDS011;50187;50.492;12.134;2023-09-19T02:45:29;0.77;;;0.77;;
20159;SDS011;50187;50.492;12.134;2023-09-19T02:47:56;0.80;;;0.80;;
20159;SDS011;50187;50.492;12.134;2023-09-19T02:50:23;0.67;;;0.67;;
20159;SDS011;50187;50.492;12.134;2023-09-19T02:52:50;1.13;;;1.03;;
20159;SDS011;50187;50.492;12.134;2023-09-19T02:55:18;0.80;;;0.80;;
20159;SDS011;50187;50.492;12.134;2023-09-19T02:57:47;0.70;;;0.70;;
20159;SDS011;50187;50.492;12.134;2023-09-19T03:00:14;0.77;;;0.77;;
20159;SDS011;50187;50.492;12.134;2023-09-19T03:02:43;0.80;;;0.80;;
20159;SDS011;50187;50.492;12.134;2023-09-19T03:05:11;0.90;;;0.90;;
20159;SDS011;50187;50.492;12.134;2023-09-19T03:07:38;0.73;;;0.73;;
20159;SDS011;50187;50.492;12.134;2023-09-19T03:10:06;0.80;;;0.80;;
20159;SDS011;50187;50.492;12.134;2023-09-19T03:12:33;0.80;;;0.80;;
20159;SDS011;50187;50.492;12.134;2023-09-19T03:15:01;1.33;;;0.97;;
20159;SDS011;50187;50.492;12.134;2023-09-19T03:17:27;0.80;;;0.80;;
20159;SDS011;50187;50.492;12.134;2023-09-19T03:19:55;1.00;;;1.00;;
20159;SDS011;50187;50.492;12.134;2023-09-19T03:22:21;0.90;;;0.90;;
20159;SDS011;50187;50.492;12.134;2023-09-19T03:24:48;0.80;;;0.80;;
20159;SDS011;50187;50.492;12.134;2023-09-19T03:27:15;0.93;;;0.93;;
20159;SDS011;50187;50.492;12.134;2023-09-19T03:29:42;0.80;;;0.80;;
20159;SDS011;50187;50.492;12.134;2023-09-19T03:32:09;1.20;;;1.10;;
20159;SDS011;50187;50.492;12.134;2023-09-19T03:34:39;1.43;;;0.70;;
20159;SDS011;50187;50.492;12.134;2023-09-19T03:37:10;0.80;;;0.80;;
20159;SDS011;50187;50.492;12.134;2023-09-19T03:39:37;1.00;;;0.80;;
20159;SDS011;50187;50.492;12.134;2023-09-19T03:42:04;0.87;;;0.87;;
20159;SDS011;50187;50.492;12.134;2023-09-19T03:44:32;0.80;;;0.80;;
20159;SDS011;50187;50.492;12.134;2023-09-19T03:46:59;0.90;;;0.90;;
20159;SDS011;50187;50.492;12.134;2023-09-19T03:49:26;0.63;;;0.63;;
20159;SDS011;50187;50.492;12.134;2023-09-19T03:51:53;0.50;;;0.50;;
20159;SDS011;50187;50.492;12.134;2023-09-19T03:54:20;0.90;;;0.90;;
20159;SDS011;50187;50.492;12.134;2023-09-19T03:56:48;0.60;;;0.60;;
20159;SDS011;50187;50.492;12.134;2023-09-19T03:59:14;0.90;;;0.90;;
20159;SDS011;50187;50.492;12.134;2023-09-19T04:01:41;0.93;;;0.93;;
20159;SDS011;50187;50.492;12.134;2023-09-19T04:04:08;0.70;;;0.70;;
20159;SDS011;50187;50.492;12.134;2023-09-19T04:06:35;2.13;;;0.87;;
20159;SDS011;50187;50.492;12.134;2023-09-19T04:09:02;0.50;;;0.50;;
20159;SDS011;50187;50.492;12.134;2023-09-19T04:11:30;1.00;;;0.90;;
20159;SDS011;50187;50.492;12.134;2023-09-19T04:13:57;0.90;;;0.90;;
20159;SDS011;50187;50.492;12.134;2023-09-19T04:16:23;0.90;;;0.90;;
20159;SDS011;50187;50.492;12.134;2023-09-19T04:18:50;0.60;;;0.60;;
20159;SDS011;50187;50.492;12.134;2023-09-19T04:21:17;1.23;;;1.00;;
20159;SDS011;50187;50.492;12.134;2023-09-19T04:23:44;1.10;;;0.90;;
20159;SDS011;50187;50.492;12.134;2023-09-19T04:26:10;0.80;;;0.80;;
20159;SDS011;50187;50.492;12.134;2023-09-19T04:28:38;0.80;;;0.80;;
20159;SDS011;50187;50.492;12.134;2023-09-19T04:31:05;0.73;;;0.73;;
20159;SDS011;50187;50.492;12.134;2023-09-19T04:33:34;0.60;;;0.60;;
20159;SDS011;50187;50.492;12.134;2023-09-19T04:36:01;0.70;;;0.70;;
20159;SDS011;50187;50.492;12.134;2023-09-19T04:38:49;0.60;;;0.60;;
20159;SDS011;50187;50.492;12.134;2023-09-19T04:41:16;0.60;;;0.60;;
20159;SDS011;50187;50.492;12.134;2023-09-19T04:43:43;0.63;;;0.63;;
20159;SDS011;50187;50.492;12.134;2023-09-19T04:46:10;0.90;;;0.90;;
20159;SDS011;50187;50.492;12.134;2023-09-19T04:48:37;0.70;;;0.70;;
20159;SDS011;50187;50.492;12.134;2023-09-19T04:51:04;0.80;;;0.80;;
20159;SDS011;50187;50.492;12.134;2023-09-19T04:53:31;0.50;;;0.50;;
20159;SDS011;50187;50.492;12.134;2023-09-19T04:55:57;1.00;;;1.00;;
20159;SDS011;50187;50.492;12.134;2023-09-19T04:58:24;0.93;;;0.93;;
20159;SDS011;50187;50.492;12.134;2023-09-19T05:00:50;0.93;;;0.93;;
20159;SDS011;50187;50.492;12.134;2023-09-19T05:03:17;0.80;;;0.80;;
20159;SDS011;50187;50.492;12.134;2023-09-19T05:05:47;1.17;;;0.90;;
20159;SDS011;50187;50.492;12.134;2023-09-19T05:08:14;0.90;;;0.90;;
20159;SDS011;50187;50.492;12.134;2023-09-19T05:10:41;0.57;;;0.57;;
20159;SDS011;50187;50.492;12.134;2023-09-19T05:13:08;0.80;;;0.80;;
20159;SDS011;50187;50.492;12.134;2023-09-19T05:15:34;0.70;;;0.70;;
20159;SDS011;50187;50.492;12.134;2023-09-19T05:18:02;0.80;;;0.80;;
20159;SDS011;50187;50.492;12.134;2023-09-19T05:20:29;0.83;;;0.83;;
20159;SDS011;50187;50.492;12.134;2023-09-19T05:23:05;0.93;;;0.70;;
20159;SDS011;50187;50.492;12.134;2023-09-19T05:25:39;1.53;;;0.73;;
20159;SDS011;50187;50.492;12.134;2023-09-19T05:28:06;0.70;;;0.70;;
20159;SDS011;50187;50.492;12.134;2023-09-19T05:30:34;0.80;;;0.80;;
20159;SDS011;50187;50.492;12.134;2023-09-19T05:33:05;0.87;;;0.87;;
20159;SDS011;50187;50.492;12.134;2023-09-19T05:35:31;0.70;;;0.70;;
20159;SDS011;50187;50.492;12.134;2023-09-19T05:37:59;0.80;;;0.80;;
20159;SDS011;50187;50.492;12.134;2023-09-19T05:40:26;0.90;;;0.90;;
20159;SDS011;50187;50.492;12.134;2023-09-19T05:42:53;0.80;;;0.80;;
20159;SDS011;50187;50.492;12.134;2023-09-19T05:45:20;0.70;;;0.70;;
20159;SDS011;50187;50.492;12.134;2023-09-19T05:47:50;0.67;;;0.67;;
20159;SDS011;50187;50.492;12.134;2023-09-19T05:50:17;0.70;;;0.70;;
20159;SDS011;50187;50.492;12.134;2023-09-19T05:52:51;0.97;;;0.97;;
20159;SDS011;50187;50.492;12.134;2023-09-19T05:55:19;0.63;;;0.63;;
20159;SDS011;50187;50.492;12.134;2023-09-19T05:57:53;0.93;;;0.93;;
20159;SDS011;50187;50.492;12.134;2023-09-19T06:00:20;0.70;;;0.70;;
20159;SDS011;50187;50.492;12.134;2023-09-19T06:02:55;0.60;;;0.60;;
20159;SDS011;50187;50.492;12.134;2023-09-19T06:05:24;0.87;;;0.87;;
20159;SDS011;50187;50.492;12.134;2023-09-19T06:07:53;0.80;;;0.80;;
20159;SDS011;50187;50.492;12.134;2023-09-19T06:10:20;0.73;;;0.60;;
20159;SDS011;50187;50.492;12.134;2023-09-19T06:12:47;0.87;;;0.87;;
20159;SDS011;50187;50.492;12.134;2023-09-19T06:15:14;0.50;;;0.50;;
20159;SDS011;50187;50.492;12.134;2023-09-19T06:17:48;0.70;;;0.70;;
20159;SDS011;50187;50.492;12.134;2023-09-19T06:20:15;0.80;;;0.80;;
20159;SDS011;50187;50.492;12.134;2023-09-19T06:22:43;1.27;;;0.63;;
20159;SDS011;50187;50.492;12.134;2023-09-19T06:25:11;0.80;;;0.80;;
20159;SDS011;50187;50.492;12.134;2023-09-19T06:27:46;0.63;;;0.63;;
20159;SDS011;50187;50.492;12.134;2023-09-19T06:30:12;0.80;;;0.80;;
20159;SDS011;50187;50.492;12.134;2023-09-19T06:32:43;1.20;;;0.60;;
20159;SDS011;50187;50.492;12.134;2023-09-19T06:35:11;0.80;;;0.80;;
20159;SDS011;50187;50.492;12.134;2023-09-19T06:37:39;0.70;;;0.70;;
20159;SDS011;50187;50.492;12.134;2023-09-19T06:40:07;0.80;;;0.80;;
20159;SDS011;50187;50.492;12.134;2023-09-19T06:42:40;2.70;;;0.90;;
20159;SDS011;50187;50.492;12.134;2023-09-19T06:45:14;0.70;;;0.70;;
20159;SDS011;50187;50.492;12.134;2023-09-19T06:47:46;0.97;;;0.97;;
20159;SDS011;50187;50.492;12.134;2023-09-19T06:50:17;1.00;;;1.00;;
20159;SDS011;50187;50.492;12.134;2023-09-19T06:52:46;1.43;;;0.67;;
20159;SDS011;50187;50.492;12.134;2023-09-19T06:55:20;0.80;;;0.80;;
20159;SDS011;50187;50.492;12.134;2023-09-19T06:57:50;0.50;;;0.50;;
20159;SDS011;50187;50.492;12.134;2023-09-19T07:00:16;0.70;;;0.70;;
20159;SDS011;50187;50.492;12.134;2023-09-19T07:05:22;0.83;;;0.83;;
20159;SDS011;50187;50.492;12.134;2023-09-19T07:07:49;1.03;;;1.03;;
20159;SDS011;50187;50.492;12.134;2023-09-19T07:10:15;0.60;;;0.60;;
20159;SDS011;50187;50.492;12.134;2023-09-19T07:12:42;0.80;;;0.50;;
20159;SDS011;50187;50.492;12.134;2023-09-19T07:15:09;0.80;;;0.80;;
20159;SDS011;50187;50.492;12.134;2023-09-19T07:17:36;0.70;;;0.70;;
20159;SDS011;50187;50.492;12.134;2023-09-19T07:20:03;0.77;;;0.77;;
20159;SDS011;50187;50.492;12.134;2023-09-19T07:22:34;0.80;;;0.80;;
20159;SDS011;50187;50.492;12.134;2023-09-19T07:25:01;1.50;;;0.90;;
20159;SDS011;50187;50.492;12.134;2023-09-19T07:27:27;1.00;;;0.90;;
20159;SDS011;50187;50.492;12.134;2023-09-19T07:29:54;0.70;;;0.70;;
20159;SDS011;50187;50.492;12.134;2023-09-19T07:32:20;0.93;;;0.93;;
20159;SDS011;50187;50.492;12.134;2023-09-19T07:34:47;1.10;;;1.10;;
20159;SDS011;50187;50.492;12.134;2023-09-19T07:37:14;0.70;;;0.70;;
20159;SDS011;50187;50.492;12.134;2023-09-19T07:39:42;0.60;;;0.60;;
20159;SDS011;50187;50.492;12.134;2023-09-19T07:42:09;0.80;;;0.80;;
20159;SDS011;50187;50.492;12.134;2023-09-19T07:44:37;0.93;;;0.90;;
20159;SDS011;50187;50.492;12.134;2023-09-19T07:47:04;0.90;;;0.90;;
20159;SDS011;50187;50.492;12.134;2023-09-19T07:49:31;0.80;;;0.70;;
20159;SDS011;50187;50.492;12.134;2023-09-19T07:51:57;0.90;;;0.83;;
20159;SDS011;50187;50.492;12.134;2023-09-19T07:54:25;0.67;;;0.67;;
20159;SDS011;50187;50.492;12.134;2023-09-19T07:56:52;0.67;;;0.67;;
20159;SDS011;50187;50.492;12.134;2023-09-19T07:59:20;0.90;;;0.90;;
20159;SDS011;50187;50.492;12.134;2023-09-19T08:01:47;0.70;;;0.70;;
20159;SDS011;50187;50.492;12.134;2023-09-19T08:04:14;0.63;;;0.63;;
20159;SDS011;50187;50.492;12.134;2023-09-19T08:06:41;0.70;;;0.70;;
20159;SDS011;50187;50.492;12.134;2023-09-19T08:09:10;0.80;;;0.80;;
20159;SDS011;50187;50.492;12.134;2023-09-19T08:11:37;1.03;;;0.90;;
20159;SDS011;50187;50.492;12.134;2023-09-19T08:14:05;0.70;;;0.70;;
20159;SDS011;50187;50.492;12.134;2023-09-19T08:16:34;0.50;;;0.50;;
20159;SDS011;50187;50.492;12.134;2023-09-19T08:19:01;0.60;;;0.60;;
20159;SDS011;50187;50.492;12.134;2023-09-19T08:21:28;0.80;;;0.80;;
20159;SDS011;50187;50.492;12.134;2023-09-19T08:23:56;1.60;;;0.90;;
20159;SDS011;50187;50.492;12.134;2023-09-19T08:26:23;1.27;;;0.97;;
20159;SDS011;50187;50.492;12.134;2023-09-19T08:28:50;0.80;;;0.80;;
20159;SDS011;50187;50.492;12.134;2023-09-19T08:31:17;0.87;;;0.87;;
20159;SDS011;50187;50.492;12.134;2023-09-19T08:33:44;1.00;;;0.90;;
20159;SDS011;50187;50.492;12.134;2023-09-19T08:36:15;0.70;;;0.70;;
20159;SDS011;50187;50.492;12.134;2023-09-19T08:38:42;0.73;;;0.73;;
20159;SDS011;50187;50.492;12.134;2023-09-19T08:41:08;0.60;;;0.60;;
20159;SDS011;50187;50.492;12.134;2023-09-19T08:43:35;0.80;;;0.80;;
20159;SDS011;50187;50.492;12.134;2023-09-19T08:46:06;0.60;;;0.60;;
20159;SDS011;50187;50.492;12.134;2023-09-19T08:48:39;0.60;;;0.60;;
20159;SDS011;50187;50.492;12.134;2023-09-19T08:51:12;0.80;;;0.80;;
20159;SDS011;50187;50.492;12.134;2023-09-19T08:54:03;0.70;;;0.63;;
20159;SDS011;50187;50.492;12.134;2023-09-19T08:56:32;1.20;;;0.77;;
20159;SDS011;50187;50.492;12.134;2023-09-19T08:59:00;0.80;;;0.80;;
20159;SDS011;50187;50.492;12.134;2023-09-19T09:01:30;0.73;;;0.73;;
20159;SDS011;50187;50.492;12.134;2023-09-19T09:03:59;0.80;;;0.80;;
20159;SDS011;50187;50.492;12.134;2023-09-19T09:06:27;0.70;;;0.70;;
20159;SDS011;50187;50.492;12.134;2023-09-19T09:08:59;0.53;;;0.53;;
20159;SDS011;50187;50.492;12.134;2023-09-19T09:11:26;0.80;;;0.80;;
20159;SDS011;50187;50.492;12.134;2023-09-19T09:13:54;0.90;;;0.90;;
20159;SDS011;50187;50.492;12.134;2023-09-19T09:16:21;0.60;;;0.60;;
20159;SDS011;50187;50.492;12.134;2023-09-19T09:18:52;0.77;;;0.77;;
20159;SDS011;50187;50.492;12.134;2023-09-19T09:21:21;0.70;;;0.70;;
20159;SDS011;50187;50.492;12.134;2023-09-19T09:23:49;0.80;;;0.80;;
20159;SDS011;50187;50.492;12.134;2023-09-19T09:26:22;0.83;;;0.80;;
20159;SDS011;50187;50.492;12.134;2023-09-19T09:29:09;0.63;;;0.63;;
20159;SDS011;50187;50.492;12.134;2023-09-19T09:31:35;0.63;;;0.63;;
20159;SDS011;50187;50.492;12.134;2023-09-19T09:34:03;1.33;;;1.23;;
20159;SDS011;50187;50.492;12.134;2023-09-19T09:36:39;0.83;;;0.80;;
20159;SDS011;50187;50.492;12.134;2023-09-19T09:39:10;0.80;;;0.80;;
20159;SDS011;50187;50.492;12.134;2023-09-19T09:41:44;0.87;;;0.87;;
20159;SDS011;50187;50.492;12.134;2023-09-19T09:44:16;0.70;;;0.70;;
20159;SDS011;50187;50.492;12.134;2023-09-19T09:46:45;0.90;;;0.90;;
20159;SDS011;50187;50.492;12.134;2023-09-19T09:49:26;1.70;;;1.07;;
20159;SDS011;50187;50.492;12.134;2023-09-19T09:52:04;0.80;;;0.80;;
20159;SDS011;50187;50.492;12.134;2023-09-19T09:55:01;0.80;;;0.80;;
20159;SDS011;50187;50.492;12.134;2023-09-19T09:57:32;0.63;;;0.63;;
20159;SDS011;50187;50.492;12.134;2023-09-19T10:00:00;0.67;;;0.67;;
20159;SDS011;50187;50.492;12.134;2023-09-19T10:02:39;0.73;;;0.70;;
20159;SDS011;50187;50.492;12.134;2023-09-19T10:05:15;0.70;;;0.70;;
20159;SDS011;50187;50.492;12.134;2023-09-19T10:07:52;0.60;;;0.60;;
20159;SDS011;50187;50.492;12.134;2023-09-19T10:10:40;0.60;;;0.60;;
20159;SDS011;50187;50.492;12.134;2023-09-19T10:13:07;1.27;;;0.80;;
20159;SDS011;50187;50.492;12.134;2023-09-19T10:15:38;0.80;;;0.80;;
20159;SDS011;50187;50.492;12.134;2023-09-19T10:18:10;0.90;;;0.90;;
20159;SDS011;50187;50.492;12.134;2023-09-19T10:20:37;0.60;;;0.60;;
20159;SDS011;50187;50.492;12.134;2023-09-19T10:23:06;0.83;;;0.80;;
20159;SDS011;50187;50.492;12.134;2023-09-19T10:25:40;0.80;;;0.80;;
20159;SDS011;50187;50.492;12.134;2023-09-19T10:28:09;0.83;;;0.83;;
20159;SDS011;50187;50.492;12.134;2023-09-19T10:30:42;0.73;;;0.73;;
20159;SDS011;50187;50.492;12.134;2023-09-19T10:33:14;0.93;;;0.90;;
20159;SDS011;50187;50.492;12.134;2023-09-19T10:35:43;0.80;;;0.80;;
20159;SDS011;50187;50.492;12.134;2023-09-19T10:38:17;1.00;;;1.00;;
20159;SDS011;50187;50.492;12.134;2023-09-19T10:40:47;1.30;;;0.93;;
20159;SDS011;50187;50.492;12.134;2023-09-19T10:43:17;2.57;;;0.67;;
20159;SDS011;50187;50.492;12.134;2023-09-19T10:45:45;1.80;;;0.77;;
20159;SDS011;50187;50.492;12.134;2023-09-19T10:48:16;1.00;;;1.00;;
20159;SDS011;50187;50.492;12.134;2023-09-19T10:50:47;0.70;;;0.70;;
20159;SDS011;50187;50.492;12.134;2023-09-19T10:53:17;0.70;;;0.70;;
20159;SDS011;50187;50.492;12.134;2023-09-19T10:55:57;0.87;;;0.87;;
20159;SDS011;50187;50.492;12.134;2023-09-19T10:58:26;0.80;;;0.80;;
20159;SDS011;50187;50.492;12.134;2023-09-19T11:01:03;1.23;;;0.80;;
20159;SDS011;50187;50.492;12.134;2023-09-19T11:03:39;1.20;;;1.10;;
20159;SDS011;50187;50.492;12.134;2023-09-19T11:06:13;0.80;;;0.80;;
20159;SDS011;50187;50.492;12.134;2023-09-19T11:08:50;0.80;;;0.80;;
20159;SDS011;50187;50.492;12.134;2023-09-19T11:11:38;1.37;;;1.00;;
20159;SDS011;50187;50.492;12.134;2023-09-19T11:14:28;0.83;;;0.83;;
20159;SDS011;50187;50.492;12.134;2023-09-19T11:30:33;0.90;;;0.87;;
20159;SDS011;50187;50.492;12.134;2023-09-19T11:46:27;0.97;;;0.93;;
20159;SDS011;50187;50.492;12.134;2023-09-19T11:48:54;0.90;;;0.90;;
20159;SDS011;50187;50.492;12.134;2023-09-19T11:51:23;0.70;;;0.70;;
20159;SDS011;50187;50.492;12.134;2023-09-19T11:53:55;1.13;;;1.00;;
20159;SDS011;50187;50.492;12.134;2023-09-19T11:56:24;0.93;;;0.93;;
20159;SDS011;50187;50.492;12.134;2023-09-19T11:58:54;1.97;;;0.80;;
20159;SDS011;50187;50.492;12.134;2023-09-19T12:01:32;1.13;;;1.10;;
20159;SDS011;50187;50.492;12.134;2023-09-19T12:04:02;0.80;;;0.80;;
20159;SDS011;50187;50.492;12.134;2023-09-19T12:06:31;1.20;;;1.10;;
20159;SDS011;50187;50.492;12.134;2023-09-19T12:09:02;0.90;;;0.90;;
20159;SDS011;50187;50.492;12.134;2023-09-19T12:11:33;1.20;;;0.90;;
20159;SDS011;50187;50.492;12.134;2023-09-19T12:14:08;1.87;;;0.93;;
20159;SDS011;50187;50.492;12.134;2023-09-19T12:16:35;0.67;;;0.67;;
20159;SDS011;50187;50.492;12.134;2023-09-19T12:19:19;0.90;;;0.90;;
20159;SDS011;50187;50.492;12.134;2023-09-19T12:21:54;0.60;;;0.60;;
20159;SDS011;50187;50.492;12.134;2023-09-19T12:24:24;1.27;;;0.90;;
20159;SDS011;50187;50.492;12.134;2023-09-19T12:27:05;0.90;;;0.90;;
20159;SDS011;50187;50.492;12.134;2023-09-19T12:29:48;0.90;;;0.90;;
20159;SDS011;50187;50.492;12.134;2023-09-19T12:32:16;0.80;;;0.80;;
20159;SDS011;50187;50.492;12.134;2023-09-19T12:34:51;0.70;;;0.70;;
20159;SDS011;50187;50.492;12.134;2023-09-19T12:37:20;0.70;;;0.70;;
20159;SDS011;50187;50.492;12.134;2023-09-19T12:39:54;0.90;;;0.80;;
20159;SDS011;50187;50.492;12.134;2023-09-19T12:42:41;0.90;;;0.90;;
20159;SDS011;50187;50.492;12.134;2023-09-19T12:45:08;0.83;;;0.83;;
20159;SDS011;50187;50.492;12.134;2023-09-19T12:47:35;0.77;;;0.77;;
20159;SDS011;50187;50.492;12.134;2023-09-19T12:52:55;0.80;;;0.80;;
20159;SDS011;50187;50.492;12.134;2023-09-19T12:55:26;0.83;;;0.80;;
20159;SDS011;50187;50.492;12.134;2023-09-19T12:58:02;1.00;;;1.00;;
20159;SDS011;50187;50.492;12.134;2023-09-19T13:05:52;1.00;;;1.00;;
20159;SDS011;50187;50.492;12.134;2023-09-19T13:08:25;0.90;;;0.90;;
20159;SDS011;50187;50.492;12.134;2023-09-19T13:11:05;0.90;;;0.90;;
20159;SDS011;50187;50.492;12.134;2023-09-19T13:16:08;1.30;;;1.07;;
20159;SDS011;50187;50.492;12.134;2023-09-19T13:18:41;1.17;;;1.07;;
20159;SDS011;50187;50.492;12.134;2023-09-19T13:21:13;1.07;;;1.00;;
20159;SDS011;50187;50.492;12.134;2023-09-19T13:23:53;0.90;;;0.90;;
20159;SDS011;50187;50.492;12.134;2023-09-19T13:26:40;1.03;;;0.87;;
20159;SDS011;50187;50.492;12.134;2023-09-19T13:29:07;0.90;;;0.90;;
20159;SDS011;50187;50.492;12.134;2023-09-19T13:31:33;2.13;;;1.13;;
20159;SDS011;50187;50.492;12.134;2023-09-19T13:34:00;1.67;;;1.00;;
20159;SDS011;50187;50.492;12.134;2023-09-19T13:36:27;1.10;;;1.10;;
20159;SDS011;50187;50.492;12.134;2023-09-19T13:38:53;1.03;;;1.03;;
20159;SDS011;50187;50.492;12.134;2023-09-19T13:41:21;1.00;;;1.00;;
20159;SDS011;50187;50.492;12.134;2023-09-19T13:43:48;1.07;;;1.07;;
20159;SDS011;50187;50.492;12.134;2023-09-19T13:46:16;0.70;;;0.70;;
20159;SDS011;50187;50.492;12.134;2023-09-19T13:48:44;1.30;;;1.20;;
20159;SDS011;50187;50.492;12.134;2023-09-19T13:51:10;1.10;;;1.10;;
20159;SDS011;50187;50.492;12.134;2023-09-19T13:53:37;1.40;;;1.27;;
20159;SDS011;50187;50.492;12.134;2023-09-19T13:56:03;1.40;;;1.30;;
20159;SDS011;50187;50.492;12.134;2023-09-19T13:58:30;1.33;;;1.23;;
20159;SDS011;50187;50.492;12.134;2023-09-19T14:01:00;2.80;;;1.63;;
20159;SDS011;50187;50.492;12.134;2023-09-19T14:03:27;3.00;;;1.80;;
20159;SDS011;50187;50.492;12.134;2023-09-19T14:05:55;2.43;;;2.17;;
20159;SDS011;50187;50.492;12.134;2023-09-19T14:08:21;1.60;;;1.50;;
20159;SDS011;50187;50.492;12.134;2023-09-19T14:10:50;2.40;;;1.97;;
20159;SDS011;50187;50.492;12.134;2023-09-19T14:13:16;2.00;;;1.90;;
20159;SDS011;50187;50.492;12.134;2023-09-19T14:15:43;2.93;;;2.10;;
20159;SDS011;50187;50.492;12.134;2023-09-19T14:18:10;3.13;;;2.07;;
20159;SDS011;50187;50.492;12.134;2023-09-19T14:20:37;4.47;;;2.10;;
20159;SDS011;50187;50.492;12.134;2023-09-19T14:23:06;3.73;;;2.33;;
20159;SDS011;50187;50.492;12.134;2023-09-19T14:25:36;8.60;;;3.03;;
20159;SDS011;50187;50.492;12.134;2023-09-19T14:28:05;5.33;;;2.47;;
20159;SDS011;50187;50.492;12.134;2023-09-19T14:30:34;5.70;;;2.57;;
20159;SDS011;50187;50.492;12.134;2023-09-19T14:33:01;3.83;;;2.20;;
20159;SDS011;50187;50.492;12.134;2023-09-19T14:35:28;5.40;;;2.30;;
20159;SDS011;50187;50.492;12.134;2023-09-19T14:37:55;2.90;;;2.40;;
20159;SDS011;50187;50.492;12.134;2023-09-19T14:40:21;3.80;;;2.40;;
20159;SDS011;50187;50.492;12.134;2023-09-19T14:42:48;4.87;;;2.57;;
20159;SDS011;50187;50.492;12.134;2023-09-19T14:45:18;4.77;;;2.63;;
20159;SDS011;50187;50.492;12.134;2023-09-19T14:47:48;3.97;;;2.70;;
20159;SDS011;50187;50.492;12.134;2023-09-19T14:50:18;5.10;;;2.70;;
20159;SDS011;50187;50.492;12.134;2023-09-19T14:52:45;3.87;;;2.50;;
20159;SDS011;50187;50.492;12.134;2023-09-19T14:55:11;4.60;;;2.33;;
20159;SDS011;50187;50.492;12.134;2023-09-19T14:57:41;3.70;;;2.53;;
20159;SDS011;50187;50.492;12.134;2023-09-19T15:00:11;3.30;;;2.17;;
20159;SDS011;50187;50.492;12.134;2023-09-19T15:02:39;5.03;;;2.30;;
20159;SDS011;50187;50.492;12.134;2023-09-19T15:05:09;4.47;;;2.47;;
20159;SDS011;50187;50.492;12.134;2023-09-19T15:07:36;4.83;;;2.40;;
20159;SDS011;50187;50.492;12.134;2023-09-19T15:10:09;3.93;;;2.37;;
20159;SDS011;50187;50.492;12.134;2023-09-19T15:12:36;11.80;;;3.20;;
20159;SDS011;50187;50.492;12.134;2023-09-19T15:15:04;4.10;;;2.80;;
20159;SDS011;50187;50.492;12.134;2023-09-19T15:17:35;4.93;;;2.40;;
20159;SDS011;50187;50.492;12.134;2023-09-19T15:20:02;3.80;;;2.77;;
20159;SDS011;50187;50.492;12.134;2023-09-19T15:22:30;3.70;;;2.50;;
20159;SDS011;50187;50.492;12.134;2023-09-19T15:24:57;2.93;;;2.50;;
20159;SDS011;50187;50.492;12.134;2023-09-19T15:27:23;2.50;;;2.30;;
20159;SDS011;50187;50.492;12.134;2023-09-19T15:29:50;2.80;;;2.50;;
20159;SDS011;50187;50.492;12.134;2023-09-19T15:32:17;3.63;;;2.20;;
20159;SDS011;50187;50.492;12.134;2023-09-19T15:34:43;3.47;;;2.30;;
20159;SDS011;50187;50.492;12.134;2023-09-19T15:37:10;3.83;;;2.37;;
20159;SDS011;50187;50.492;12.134;2023-09-19T15:39:36;3.13;;;2.23;;
20159;SDS011;50187;50.492;12.134;2023-09-19T15:42:03;4.10;;;2.50;;
20159;SDS011;50187;50.492;12.134;2023-09-19T15:44:30;3.40;;;2.40;;
20159;SDS011;50187;50.492;12.134;2023-09-19T15:46:57;3.13;;;2.37;;
20159;SDS011;50187;50.492;12.134;2023-09-19T15:49:23;2.97;;;2.43;;
20159;SDS011;50187;50.492;12.134;2023-09-19T15:51:51;4.17;;;2.60;;
20159;SDS011;50187;50.492;12.134;2023-09-19T15:54:17;3.03;;;2.20;;